sensor_id;sensor_type;location;lat;lon;timestamp;temperature;humidity
29007;DHT22;16104;48.642;9.008;2023-04-24T01:02:26;13.40;60.00
29007;DHT22;16104;48.642;9.008;2023-04-24T01:07:22;13.40;60.90
29007;DHT22;16104;48.642;9.008;2023-04-24T01:12:18;13.50;61.00
29007;DHT22;16104;48.642;9.008;2023-04-24T02:03:02;13.50;60.60
29007;DHT22;16104;48.642;9.008;2023-04-24T02:07:57;13.50;62.40
29007;DHT22;16104;48.642;9.008;2023-04-24T02:12:53;13.50;61.70
29007;DHT22;16104;48.642;9.008;2023-04-24T03:03:38;13.30;62.80
29007;DHT22;16104;48.642;9.008;2023-04-24T03:08:34;13.30;62.90
29007;DHT22;16104;48.642;9.008;2023-04-24T03:13:29;13.30;63.00
29007;DHT22;16104;48.642;9.008;2023-04-24T03:18:25;13.20;63.10
29007;DHT22;16104;48.642;9.008;2023-04-24T03:23:21;13.20;63.30
29007;DHT22;16104;48.642;9.008;2023-04-24T03:28:16;13.20;63.40
29007;DHT22;16104;48.642;9.008;2023-04-24T03:33:12;13.20;63.50
29007;DHT22;16104;48.642;9.008;2023-04-24T03:38:07;13.10;63.40
29007;DHT22;16104;48.642;9.008;2023-04-24T03:43:03;13.10;63.40
29007;DHT22;16104;48.642;9.008;2023-04-24T03:47:59;13.10;63.40
29007;DHT22;16104;48.642;9.008;2023-04-24T03:52:54;13.00;63.40
29007;DHT22;16104;48.642;9.008;2023-04-24T03:57:50;13.00;63.40
29007;DHT22;16104;48.642;9.008;2023-04-24T04:02:46;12.90;63.40
29007;DHT22;16104;48.642;9.008;2023-04-24T04:07:41;12.90;63.50
29007;DHT22;16104;48.642;9.008;2023-04-24T04:12:37;12.90;63.50
29007;DHT22;16104;48.642;9.008;2023-04-24T04:17:32;12.80;63.70
29007;DHT22;16104;48.642;9.008;2023-04-24T04:22:28;12.80;64.00
29007;DHT22;16104;48.642;9.008;2023-04-24T04:27:23;12.80;64.40
29007;DHT22;16104;48.642;9.008;2023-04-24T04:32:19;12.70;64.60
29007;DHT22;16104;48.642;9.008;2023-04-24T04:37:14;12.70;64.90
29007;DHT22;16104;48.642;9.008;2023-04-24T04:42:10;12.70;64.60
29007;DHT22;16104;48.642;9.008;2023-04-24T04:47:05;12.70;63.80
29007;DHT22;16104;48.642;9.008;2023-04-24T04:52:01;12.60;62.40
29007;DHT22;16104;48.642;9.008;2023-04-24T04:56:56;12.50;62.20
29007;DHT22;16104;48.642;9.008;2023-04-24T05:01:52;12.40;62.20
29007;DHT22;16104;48.642;9.008;2023-04-24T05:06:48;12.30;62.30
29007;DHT22;16104;48.642;9.008;2023-04-24T05:11:43;12.20;62.60
29007;DHT22;16104;48.642;9.008;2023-04-24T05:16:39;12.20;62.80
29007;DHT22;16104;48.642;9.008;2023-04-24T05:21:35;12.10;62.90
29007;DHT22;16104;48.642;9.008;2023-04-24T05:26:31;12.10;63.00
29007;DHT22;16104;48.642;9.008;2023-04-24T05:31:26;12.00;63.20
29007;DHT22;16104;48.642;9.008;2023-04-24T05:36:22;12.00;63.30
29007;DHT22;16104;48.642;9.008;2023-04-24T05:41:18;12.00;63.60
29007;DHT22;16104;48.642;9.008;2023-04-24T05:46:13;12.10;63.60
29007;DHT22;16104;48.642;9.008;2023-04-24T05:51:09;12.10;63.70
29007;DHT22;16104;48.642;9.008;2023-04-24T05:56:05;12.10;63.50
29007;DHT22;16104;48.642;9.008;2023-04-24T06:01:01;12.10;63.40
29007;DHT22;16104;48.642;9.008;2023-04-24T06:05:57;12.10;63.20
29007;DHT22;16104;48.642;9.008;2023-04-24T06:10:52;12.10;62.90
29007;DHT22;16104;48.642;9.008;2023-04-24T06:15:48;12.20;63.40
29007;DHT22;16104;48.642;9.008;2023-04-24T06:20:43;12.20;63.50
29007;DHT22;16104;48.642;9.008;2023-04-24T06:25:39;12.30;63.60
29007;DHT22;16104;48.642;9.008;2023-04-24T06:30:34;12.40;63.40
29007;DHT22;16104;48.642;9.008;2023-04-24T06:35:30;12.50;63.40
29007;DHT22;16104;48.642;9.008;2023-04-24T06:40:25;12.60;63.90
29007;DHT22;16104;48.642;9.008;2023-04-24T06:45:21;12.80;63.70
29007;DHT22;16104;48.642;9.008;2023-04-24T06:50:17;13.00;64.30
29007;DHT22;16104;48.642;9.008;2023-04-24T06:55:12;13.20;64.10
29007;DHT22;16104;48.642;9.008;2023-04-24T07:00:08;13.40;62.40
29007;DHT22;16104;48.642;9.008;2023-04-24T07:05:05;13.40;61.90
29007;DHT22;16104;48.642;9.008;2023-04-24T07:10:00;13.50;61.20
29007;DHT22;16104;48.642;9.008;2023-04-24T07:14:56;13.50;60.30
29007;DHT22;16104;48.642;9.008;2023-04-24T07:19:52;13.50;59.70
29007;DHT22;16104;48.642;9.008;2023-04-24T07:24:47;13.40;60.00
29007;DHT22;16104;48.642;9.008;2023-04-24T07:29:43;13.30;60.20
29007;DHT22;16104;48.642;9.008;2023-04-24T07:34:38;13.20;60.70
29007;DHT22;16104;48.642;9.008;2023-04-24T07:39:34;13.20;61.20
29007;DHT22;16104;48.642;9.008;2023-04-24T07:44:29;13.30;61.00
29007;DHT22;16104;48.642;9.008;2023-04-24T07:49:25;13.40;61.30
29007;DHT22;16104;48.642;9.008;2023-04-24T07:54:20;13.40;60.80
29007;DHT22;16104;48.642;9.008;2023-04-24T07:59:16;13.60;59.60
29007;DHT22;16104;48.642;9.008;2023-04-24T08:04:12;13.60;59.30
29007;DHT22;16104;48.642;9.008;2023-04-24T08:09:07;13.60;59.20
29007;DHT22;16104;48.642;9.008;2023-04-24T08:14:02;13.70;58.40
29007;DHT22;16104;48.642;9.008;2023-04-24T08:18:58;13.60;57.70
29007;DHT22;16104;48.642;9.008;2023-04-24T08:23:53;13.60;57.40
29007;DHT22;16104;48.642;9.008;2023-04-24T08:28:49;13.50;57.50
29007;DHT22;16104;48.642;9.008;2023-04-24T08:33:44;13.50;57.60
29007;DHT22;16104;48.642;9.008;2023-04-24T08:38:42;13.50;57.40
29007;DHT22;16104;48.642;9.008;2023-04-24T08:43:38;13.60;57.50
29007;DHT22;16104;48.642;9.008;2023-04-24T08:48:34;13.70;56.80
29007;DHT22;16104;48.642;9.008;2023-04-24T08:53:30;13.80;56.50
29007;DHT22;16104;48.642;9.008;2023-04-24T08:58:28;13.80;56.00
29007;DHT22;16104;48.642;9.008;2023-04-24T09:03:24;13.90;55.70
29007;DHT22;16104;48.642;9.008;2023-04-24T09:08:24;13.90;56.40
29007;DHT22;16104;48.642;9.008;2023-04-24T09:13:20;13.90;55.70
29007;DHT22;16104;48.642;9.008;2023-04-24T09:18:16;14.00;55.40
29007;DHT22;16104;48.642;9.008;2023-04-24T09:23:17;14.20;54.80
29007;DHT22;16104;48.642;9.008;2023-04-24T09:28:16;14.30;55.00
29007;DHT22;16104;48.642;9.008;2023-04-24T09:33:14;14.50;53.90
29007;DHT22;16104;48.642;9.008;2023-04-24T09:38:10;14.70;53.80
29007;DHT22;16104;48.642;9.008;2023-04-24T09:43:10;14.90;53.60
29007;DHT22;16104;48.642;9.008;2023-04-24T09:48:09;15.00;52.00
29007;DHT22;16104;48.642;9.008;2023-04-24T09:53:06;15.20;51.90
29007;DHT22;16104;48.642;9.008;2023-04-24T09:58:07;15.40;50.70
29007;DHT22;16104;48.642;9.008;2023-04-24T10:03:04;15.40;49.50
29007;DHT22;16104;48.642;9.008;2023-04-24T10:08:09;15.30;49.80
29007;DHT22;16104;48.642;9.008;2023-04-24T10:13:07;15.30;50.10
29007;DHT22;16104;48.642;9.008;2023-04-24T10:18:04;15.40;49.90
29007;DHT22;16104;48.642;9.008;2023-04-24T10:23:01;15.40;49.20
29007;DHT22;16104;48.642;9.008;2023-04-24T10:27:58;15.50;49.30
29007;DHT22;16104;48.642;9.008;2023-04-24T10:32:55;15.40;49.00
29007;DHT22;16104;48.642;9.008;2023-04-24T10:38:06;15.40;48.80
29007;DHT22;16104;48.642;9.008;2023-04-24T10:43:07;15.30;49.00
29007;DHT22;16104;48.642;9.008;2023-04-24T10:48:06;15.20;49.10
29007;DHT22;16104;48.642;9.008;2023-04-24T10:53:09;15.20;49.30
29007;DHT22;16104;48.642;9.008;2023-04-24T10:58:06;15.10;49.80
29007;DHT22;16104;48.642;9.008;2023-04-24T11:03:04;15.10;50.20
29007;DHT22;16104;48.642;9.008;2023-04-24T11:08:14;15.10;50.20
29007;DHT22;16104;48.642;9.008;2023-04-24T11:13:14;15.20;49.60
29007;DHT22;16104;48.642;9.008;2023-04-24T11:18:14;15.30;49.90
29007;DHT22;16104;48.642;9.008;2023-04-24T11:23:12;15.40;49.90
29007;DHT22;16104;48.642;9.008;2023-04-24T11:28:14;15.50;49.80
29007;DHT22;16104;48.642;9.008;2023-04-24T11:33:11;15.50;48.70
29007;DHT22;16104;48.642;9.008;2023-04-24T11:38:07;15.50;49.10
29007;DHT22;16104;48.642;9.008;2023-04-24T11:43:04;15.40;49.20
29007;DHT22;16104;48.642;9.008;2023-04-24T11:48:00;15.50;49.60
29007;DHT22;16104;48.642;9.008;2023-04-24T11:52:57;15.50;49.10
29007;DHT22;16104;48.642;9.008;2023-04-24T11:57:58;15.50;49.20
29007;DHT22;16104;48.642;9.008;2023-04-24T12:03:11;15.60;48.90
29007;DHT22;16104;48.642;9.008;2023-04-24T12:08:07;15.50;48.60
29007;DHT22;16104;48.642;9.008;2023-04-24T12:13:02;15.40;48.60
29007;DHT22;16104;48.642;9.008;2023-04-24T12:17:58;15.30;48.10
29007;DHT22;16104;48.642;9.008;2023-04-24T12:22:56;15.20;48.60
29007;DHT22;16104;48.642;9.008;2023-04-24T12:27:54;15.10;48.80
29007;DHT22;16104;48.642;9.008;2023-04-24T12:32:50;15.00;49.10
29007;DHT22;16104;48.642;9.008;2023-04-24T12:37:47;14.90;49.20
29007;DHT22;16104;48.642;9.008;2023-04-24T12:42:50;14.90;50.10
29007;DHT22;16104;48.642;9.008;2023-04-24T12:47:46;14.80;50.50
29007;DHT22;16104;48.642;9.008;2023-04-24T12:52:42;14.90;50.60
29007;DHT22;16104;48.642;9.008;2023-04-24T12:57:39;14.90;50.80
29007;DHT22;16104;48.642;9.008;2023-04-24T13:02:35;15.10;50.50
29007;DHT22;16104;48.642;9.008;2023-04-24T13:07:30;15.10;50.30
29007;DHT22;16104;48.642;9.008;2023-04-24T13:12:26;15.20;50.10
29007;DHT22;16104;48.642;9.008;2023-04-24T13:17:22;15.10;49.80
29007;DHT22;16104;48.642;9.008;2023-04-24T13:22:18;15.10;49.30
29007;DHT22;16104;48.642;9.008;2023-04-24T13:27:17;15.00;49.60
29007;DHT22;16104;48.642;9.008;2023-04-24T13:32:12;14.90;49.60
29007;DHT22;16104;48.642;9.008;2023-04-24T13:37:08;14.90;49.80
29007;DHT22;16104;48.642;9.008;2023-04-24T13:42:03;14.90;50.40
29007;DHT22;16104;48.642;9.008;2023-04-24T13:46:59;14.80;49.40
29007;DHT22;16104;48.642;9.008;2023-04-24T13:51:55;14.70;49.40
29007;DHT22;16104;48.642;9.008;2023-04-24T13:56:52;14.60;49.10
29007;DHT22;16104;48.642;9.008;2023-04-24T14:01:47;14.50;49.50
29007;DHT22;16104;48.642;9.008;2023-04-24T14:06:43;14.50;49.60
29007;DHT22;16104;48.642;9.008;2023-04-24T14:11:39;14.40;49.70
29007;DHT22;16104;48.642;9.008;2023-04-24T14:16:35;14.30;49.30
29007;DHT22;16104;48.642;9.008;2023-04-24T14:21:30;14.20;49.30
29007;DHT22;16104;48.642;9.008;2023-04-24T14:26:26;14.20;49.80
29007;DHT22;16104;48.642;9.008;2023-04-24T14:31:21;14.30;50.20
29007;DHT22;16104;48.642;9.008;2023-04-24T14:36:17;14.30;50.50
29007;DHT22;16104;48.642;9.008;2023-04-24T14:41:12;14.40;50.50
29007;DHT22;16104;48.642;9.008;2023-04-24T14:46:08;14.50;50.40
29007;DHT22;16104;48.642;9.008;2023-04-24T14:51:04;14.70;50.20
29007;DHT22;16104;48.642;9.008;2023-04-24T14:56:00;14.80;49.60
29007;DHT22;16104;48.642;9.008;2023-04-24T15:00:56;14.80;49.30
29007;DHT22;16104;48.642;9.008;2023-04-24T15:05:51;14.80;49.40
29007;DHT22;16104;48.642;9.008;2023-04-24T15:10:47;14.80;50.20
29007;DHT22;16104;48.642;9.008;2023-04-24T15:15:43;14.90;49.40
29007;DHT22;16104;48.642;9.008;2023-04-24T15:20:39;14.90;49.10
29007;DHT22;16104;48.642;9.008;2023-04-24T15:25:35;14.90;49.10
29007;DHT22;16104;48.642;9.008;2023-04-24T15:30:30;14.80;49.10
29007;DHT22;16104;48.642;9.008;2023-04-24T15:35:26;14.80;49.10
29007;DHT22;16104;48.642;9.008;2023-04-24T15:40:21;14.70;49.40
29007;DHT22;16104;48.642;9.008;2023-04-24T15:45:17;14.70;49.30
29007;DHT22;16104;48.642;9.008;2023-04-24T15:50:13;14.70;49.30
29007;DHT22;16104;48.642;9.008;2023-04-24T15:55:10;14.60;49.30
29007;DHT22;16104;48.642;9.008;2023-04-24T16:00:06;14.60;50.30
29007;DHT22;16104;48.642;9.008;2023-04-24T16:05:05;14.70;49.60
29007;DHT22;16104;48.642;9.008;2023-04-24T16:10:02;14.80;49.60
29007;DHT22;16104;48.642;9.008;2023-04-24T16:14:58;14.80;49.60
29007;DHT22;16104;48.642;9.008;2023-04-24T16:19:53;14.80;49.30
29007;DHT22;16104;48.642;9.008;2023-04-24T16:24:49;14.90;49.30
29007;DHT22;16104;48.642;9.008;2023-04-24T16:29:44;14.90;49.00
29007;DHT22;16104;48.642;9.008;2023-04-24T16:34:40;14.90;48.80
29007;DHT22;16104;48.642;9.008;2023-04-24T16:39:36;14.90;48.60
29007;DHT22;16104;48.642;9.008;2023-04-24T16:44:32;14.80;48.30
29007;DHT22;16104;48.642;9.008;2023-04-24T16:49:28;14.70;48.40
29007;DHT22;16104;48.642;9.008;2023-04-24T16:54:26;14.60;48.50
29007;DHT22;16104;48.642;9.008;2023-04-24T16:59:22;14.60;48.80
29007;DHT22;16104;48.642;9.008;2023-04-24T17:04:18;14.60;49.50
29007;DHT22;16104;48.642;9.008;2023-04-24T17:09:13;14.60;49.60
29007;DHT22;16104;48.642;9.008;2023-04-24T17:14:10;14.80;49.30
29007;DHT22;16104;48.642;9.008;2023-04-24T17:19:05;14.90;49.30
29007;DHT22;16104;48.642;9.008;2023-04-24T17:24:01;15.10;49.60
29007;DHT22;16104;48.642;9.008;2023-04-24T17:28:57;15.10;48.80
29007;DHT22;16104;48.642;9.008;2023-04-24T17:33:52;15.20;48.60
29007;DHT22;16104;48.642;9.008;2023-04-24T17:38:48;15.20;48.50
29007;DHT22;16104;48.642;9.008;2023-04-24T17:43:43;15.10;48.30
29007;DHT22;16104;48.642;9.008;2023-04-24T17:48:39;15.00;48.20
29007;DHT22;16104;48.642;9.008;2023-04-24T17:53:35;14.80;48.30
29007;DHT22;16104;48.642;9.008;2023-04-24T17:58:30;14.70;48.60
29007;DHT22;16104;48.642;9.008;2023-04-24T18:03:26;14.50;48.70
29007;DHT22;16104;48.642;9.008;2023-04-24T18:08:22;14.40;49.00
29007;DHT22;16104;48.642;9.008;2023-04-24T18:13:17;14.30;49.30
29007;DHT22;16104;48.642;9.008;2023-04-24T18:18:13;14.20;49.40
29007;DHT22;16104;48.642;9.008;2023-04-24T18:23:09;14.10;49.70
29007;DHT22;16104;48.642;9.008;2023-04-24T18:28:05;13.90;49.90
29007;DHT22;16104;48.642;9.008;2023-04-24T18:33:00;13.80;50.20
29007;DHT22;16104;48.642;9.008;2023-04-24T18:37:56;13.70;50.60
29007;DHT22;16104;48.642;9.008;2023-04-24T18:42:51;13.60;50.80
29007;DHT22;16104;48.642;9.008;2023-04-24T18:47:47;13.50;51.00
29007;DHT22;16104;48.642;9.008;2023-04-24T18:52:42;13.50;51.30
29007;DHT22;16104;48.642;9.008;2023-04-24T18:57:38;13.40;51.50
29007;DHT22;16104;48.642;9.008;2023-04-24T19:02:33;13.20;51.40
29007;DHT22;16104;48.642;9.008;2023-04-24T19:07:29;13.10;51.70
29007;DHT22;16104;48.642;9.008;2023-04-24T19:12:25;13.00;52.20
29007;DHT22;16104;48.642;9.008;2023-04-24T19:17:20;12.80;52.50
29007;DHT22;16104;48.642;9.008;2023-04-24T19:22:19;12.70;53.00
29007;DHT22;16104;48.642;9.008;2023-04-24T19:27:17;12.60;53.20
29007;DHT22;16104;48.642;9.008;2023-04-24T19:32:12;12.40;53.40
29007;DHT22;16104;48.642;9.008;2023-04-24T19:37:08;12.30;53.70
29007;DHT22;16104;48.642;9.008;2023-04-24T19:42:04;12.20;53.90
29007;DHT22;16104;48.642;9.008;2023-04-24T19:47:00;12.10;54.20
29007;DHT22;16104;48.642;9.008;2023-04-24T19:51:55;12.00;54.50
29007;DHT22;16104;48.642;9.008;2023-04-24T19:56:51;11.90;54.80
29007;DHT22;16104;48.642;9.008;2023-04-24T20:01:46;11.90;55.00
29007;DHT22;16104;48.642;9.008;2023-04-24T20:06:42;11.80;55.10
29007;DHT22;16104;48.642;9.008;2023-04-24T20:11:37;11.70;55.20
29007;DHT22;16104;48.642;9.008;2023-04-24T20:16:33;11.70;55.50
29007;DHT22;16104;48.642;9.008;2023-04-24T20:21:28;11.70;55.60
29007;DHT22;16104;48.642;9.008;2023-04-24T20:26:24;11.60;55.90
29007;DHT22;16104;48.642;9.008;2023-04-24T20:31:20;11.50;55.90
29007;DHT22;16104;48.642;9.008;2023-04-24T20:36:15;11.50;55.90
29007;DHT22;16104;48.642;9.008;2023-04-24T20:41:11;11.40;55.90
29007;DHT22;16104;48.642;9.008;2023-04-24T20:46:07;11.40;56.00
29007;DHT22;16104;48.642;9.008;2023-04-24T20:51:02;11.40;56.20
29007;DHT22;16104;48.642;9.008;2023-04-24T20:55:58;11.40;56.50
29007;DHT22;16104;48.642;9.008;2023-04-24T21:00:53;11.40;56.60
29007;DHT22;16104;48.642;9.008;2023-04-24T21:05:49;11.40;56.80
29007;DHT22;16104;48.642;9.008;2023-04-24T21:10:44;11.30;57.00
29007;DHT22;16104;48.642;9.008;2023-04-24T21:15:40;11.40;57.30
29007;DHT22;16104;48.642;9.008;2023-04-24T21:20:35;11.30;57.40
29007;DHT22;16104;48.642;9.008;2023-04-24T21:25:31;11.30;57.30
29007;DHT22;16104;48.642;9.008;2023-04-24T21:30:27;11.30;57.40
29007;DHT22;16104;48.642;9.008;2023-04-24T21:35:22;11.30;57.30
29007;DHT22;16104;48.642;9.008;2023-04-24T21:40:18;11.30;58.10
29007;DHT22;16104;48.642;9.008;2023-04-24T21:45:35;11.30;57.40
29007;DHT22;16104;48.642;9.008;2023-04-24T21:50:31;11.30;57.70
29007;DHT22;16104;48.642;9.008;2023-04-24T21:55:26;11.40;57.40
29007;DHT22;16104;48.642;9.008;2023-04-24T22:00:22;11.40;57.30
29007;DHT22;16104;48.642;9.008;2023-04-24T22:05:18;11.40;57.50
29007;DHT22;16104;48.642;9.008;2023-04-24T22:10:15;11.40;57.50
29007;DHT22;16104;48.642;9.008;2023-04-24T22:15:11;11.40;57.80
29007;DHT22;16104;48.642;9.008;2023-04-24T22:20:07;11.40;57.70
29007;DHT22;16104;48.642;9.008;2023-04-24T22:25:03;11.40;57.90
29007;DHT22;16104;48.642;9.008;2023-04-24T22:29:58;11.40;58.10
29007;DHT22;16104;48.642;9.008;2023-04-24T22:34:54;11.30;57.90
29007;DHT22;16104;48.642;9.008;2023-04-24T22:39:49;11.30;58.20
29007;DHT22;16104;48.642;9.008;2023-04-24T22:44:45;11.30;58.90
29007;DHT22;16104;48.642;9.008;2023-04-24T22:49:40;11.30;58.20
29007;DHT22;16104;48.642;9.008;2023-04-24T22:54:36;11.30;58.50
29007;DHT22;16104;48.642;9.008;2023-04-24T22:59:31;11.30;58.50
29007;DHT22;16104;48.642;9.008;2023-04-24T23:04:27;11.30;58.50
29007;DHT22;16104;48.642;9.008;2023-04-24T23:09:23;11.30;58.50
29007;DHT22;16104;48.642;9.008;2023-04-24T23:14:19;11.30;58.70
29007;DHT22;16104;48.642;9.008;2023-04-24T23:19:14;11.30;58.90
29007;DHT22;16104;48.642;9.008;2023-04-24T23:24:10;11.20;58.80
29007;DHT22;16104;48.642;9.008;2023-04-24T23:29:05;11.30;58.90
29007;DHT22;16104;48.642;9.008;2023-04-24T23:34:01;11.20;58.70
29007;DHT22;16104;48.642;9.008;2023-04-24T23:38:57;11.20;59.00
29007;DHT22;16104;48.642;9.008;2023-04-24T23:43:53;11.20;59.00
29007;DHT22;16104;48.642;9.008;2023-04-24T23:48:48;11.20;59.10
29007;DHT22;16104;48.642;9.008;2023-04-24T23:53:44;11.10;59.10
29007;DHT22;16104;48.642;9.008;2023-04-24T23:58:39;11.10;59.10
